createdAt,value
2018-12-05T00:00:45.328Z,53.60
2018-12-05T00:03:14.411Z,53.60
2018-12-05T00:05:43.647Z,53.50
2018-12-05T00:08:13.693Z,53.50
2018-12-05T00:10:43.573Z,53.50
2018-12-05T00:13:13.023Z,53.50
2018-12-05T00:15:42.136Z,53.50
2018-12-05T00:18:11.030Z,53.40
2018-12-05T00:20:39.308Z,53.40
2018-12-05T00:23:08.636Z,53.40
2018-12-05T00:25:36.899Z,53.40
2018-12-05T00:28:05.723Z,53.90
2018-12-05T00:30:34.122Z,53.30
2018-12-05T00:33:02.442Z,53.30
2018-12-05T00:35:30.740Z,53.30
2018-12-05T00:38:01.711Z,53.30
2018-12-05T00:40:30.828Z,53.20
2018-12-05T00:42:59.473Z,53.20
2018-12-05T00:45:28.792Z,53.20
2018-12-05T00:47:58.091Z,53.20
2018-12-05T00:50:26.368Z,53.10
2018-12-05T00:52:54.700Z,53.10
2018-12-05T00:55:22.995Z,53.10
2018-12-05T00:57:52.617Z,53.50
2018-12-05T01:00:20.996Z,53.20
2018-12-05T01:02:49.277Z,53.20
2018-12-05T01:05:18.705Z,53.20
2018-12-05T01:07:48.067Z,53.10
2018-12-05T01:10:17.423Z,53.00
2018-12-05T01:12:45.707Z,53.00
2018-12-05T01:15:14.055Z,53.00
2018-12-05T01:17:42.348Z,53.10
2018-12-05T01:20:10.620Z,53.00
2018-12-05T01:22:38.896Z,53.00
2018-12-05T01:25:08.309Z,53.00
2018-12-05T01:27:36.599Z,53.00
2018-12-05T01:30:05.496Z,53.10
2018-12-05T01:32:33.801Z,53.10
2018-12-05T01:35:02.083Z,53.10
2018-12-05T01:37:30.389Z,53.10
2018-12-05T01:39:59.696Z,53.10
2018-12-05T01:42:27.987Z,53.10
2018-12-05T01:44:56.888Z,53.10
2018-12-05T01:47:25.302Z,53.10
2018-12-05T01:49:53.587Z,53.10
2018-12-05T01:52:22.914Z,53.10
2018-12-05T01:54:51.207Z,53.10
2018-12-05T01:57:19.524Z,53.10
2018-12-05T01:59:48.491Z,53.10
2018-12-05T02:02:17.783Z,53.10
2018-12-05T02:04:46.060Z,53.00
2018-12-05T02:07:15.519Z,53.10
2018-12-05T02:09:46.740Z,53.10
2018-12-05T02:12:15.315Z,53.10
2018-12-05T02:14:44.638Z,53.10
2018-12-05T02:17:12.941Z,53.10
2018-12-05T02:19:41.231Z,53.10
2018-12-05T02:22:09.653Z,53.20
2018-12-05T02:24:37.959Z,53.10
2018-12-05T02:27:06.246Z,53.20
2018-12-05T02:29:40.021Z,53.10
2018-12-05T02:32:08.426Z,52.90
2018-12-05T02:34:37.776Z,53.00
2018-12-05T02:37:06.032Z,53.10
2018-12-05T02:39:34.418Z,53.00
2018-12-05T02:42:02.729Z,53.00
2018-12-05T02:44:31.025Z,53.00
2018-12-05T02:46:59.318Z,52.90
2018-12-05T02:49:27.909Z,53.00
2018-12-05T02:51:57.269Z,53.00
2018-12-05T02:54:25.554Z,53.00
2018-12-05T02:56:53.852Z,53.00
2018-12-05T02:59:22.145Z,53.00
2018-12-05T03:01:50.442Z,53.00
2018-12-05T03:04:18.772Z,53.10
2018-12-05T03:06:47.186Z,53.00
2018-12-05T03:09:15.480Z,53.10
2018-12-05T03:11:43.783Z,52.90
2018-12-05T03:14:12.066Z,53.00
2018-12-05T03:16:40.336Z,53.00
2018-12-05T03:19:08.824Z,53.00
2018-12-05T03:21:37.112Z,53.00
2018-12-05T03:24:05.948Z,53.10
2018-12-05T03:26:34.266Z,53.10
2018-12-05T03:29:02.569Z,53.00
2018-12-05T03:31:30.879Z,53.00
2018-12-05T03:33:59.280Z,52.90
2018-12-05T03:36:27.573Z,53.00
2018-12-05T03:38:56.190Z,52.90
2018-12-05T03:41:24.474Z,53.00
2018-12-05T03:43:52.742Z,53.00
2018-12-05T03:46:21.351Z,53.00
2018-12-05T03:48:49.642Z,53.10
2018-12-05T03:51:17.953Z,53.00
2018-12-05T03:53:46.206Z,53.10
2018-12-05T03:56:14.509Z,53.00
2018-12-05T03:58:42.768Z,52.80
2018-12-05T04:01:11.057Z,53.00
2018-12-05T04:03:40.459Z,53.10
2018-12-05T04:06:08.822Z,53.10
2018-12-05T04:08:37.194Z,53.10
2018-12-05T04:11:06.430Z,53.00
2018-12-05T04:13:35.285Z,53.20
2018-12-05T04:16:04.241Z,53.00
2018-12-05T04:18:32.528Z,53.10
2018-12-05T04:21:00.845Z,53.10
2018-12-05T04:23:29.189Z,53.10
2018-12-05T04:25:58.411Z,53.10
2018-12-05T04:28:26.740Z,53.10
2018-12-05T04:30:56.069Z,53.10
2018-12-05T04:33:24.382Z,53.00
2018-12-05T04:35:52.753Z,53.10
2018-12-05T04:38:21.051Z,53.10
2018-12-05T04:40:49.374Z,53.10
2018-12-05T04:43:17.664Z,53.10
2018-12-05T04:45:46.834Z,53.10
2018-12-05T04:48:15.117Z,53.10
2018-12-05T04:50:43.400Z,53.10
2018-12-05T04:53:11.783Z,53.50
2018-12-05T04:55:41.929Z,53.10
2018-12-05T04:58:10.213Z,53.10
2018-12-05T05:00:38.517Z,53.10
2018-12-05T05:03:06.799Z,53.20
2018-12-05T05:05:35.075Z,53.20
2018-12-05T05:08:03.397Z,53.20
2018-12-05T05:10:31.673Z,53.20
2018-12-05T05:12:59.982Z,53.10
2018-12-05T05:15:28.280Z,53.10
2018-12-05T05:17:56.590Z,53.10
2018-12-05T05:20:25.012Z,53.20
2018-12-05T05:22:53.289Z,53.20
2018-12-05T05:25:22.597Z,53.20
2018-12-05T05:27:51.945Z,53.20
2018-12-05T05:30:20.329Z,53.20
2018-12-05T05:32:52.830Z,53.30
2018-12-05T05:35:22.301Z,53.20
2018-12-05T05:37:50.704Z,53.20
2018-12-05T05:40:19.020Z,53.20
2018-12-05T05:42:47.345Z,53.20
2018-12-05T05:45:16.405Z,53.20
2018-12-05T05:47:45.756Z,53.80
2018-12-05T05:50:14.127Z,53.20
2018-12-05T05:52:42.434Z,53.10
2018-12-05T05:55:10.725Z,53.10
2018-12-05T05:57:41.178Z,53.20
2018-12-05T06:00:10.015Z,53.20
2018-12-05T06:02:39.329Z,53.20
2018-12-05T06:05:07.720Z,53.20
2018-12-05T06:07:36.968Z,53.20
2018-12-05T06:10:06.227Z,53.20
2018-12-05T06:12:34.516Z,53.10
2018-12-05T06:15:02.799Z,53.20
2018-12-05T06:17:31.089Z,53.20
2018-12-05T06:20:00.432Z,53.20
2018-12-05T06:22:28.760Z,53.20
2018-12-05T06:24:57.040Z,53.20
2018-12-05T06:27:25.330Z,53.20
2018-12-05T06:29:53.608Z,53.20
2018-12-05T06:32:21.959Z,53.20
2018-12-05T06:34:50.273Z,53.10
2018-12-05T06:37:18.588Z,53.10
2018-12-05T06:39:46.857Z,53.20
2018-12-05T06:42:15.151Z,53.20
2018-12-05T06:44:43.524Z,53.20
2018-12-05T06:47:12.852Z,53.20
2018-12-05T06:49:41.217Z,53.20
2018-12-05T06:52:10.510Z,53.20
2018-12-05T06:54:38.833Z,53.20
2018-12-05T06:57:07.269Z,53.20
2018-12-05T06:59:36.560Z,53.20
2018-12-05T07:02:05.148Z,53.20
2018-12-05T07:04:33.625Z,53.20
2018-12-05T07:07:01.942Z,53.20
2018-12-05T07:09:31.274Z,53.20
2018-12-05T07:12:01.434Z,53.10
2018-12-05T07:14:30.168Z,53.20
2018-12-05T07:16:58.423Z,53.20
2018-12-05T07:19:28.005Z,53.10
2018-12-05T07:21:56.293Z,53.10
2018-12-05T07:24:25.167Z,53.20
2018-12-05T07:26:53.695Z,53.10
2018-12-05T07:29:21.992Z,53.20
2018-12-05T07:31:50.391Z,53.40
2018-12-05T07:34:18.724Z,53.30
2018-12-05T07:36:46.996Z,53.40
2018-12-05T07:39:15.275Z,53.40
2018-12-05T07:41:45.442Z,53.40
2018-12-05T07:44:13.756Z,53.40
2018-12-05T07:46:43.039Z,53.40
2018-12-05T07:49:11.366Z,53.40
2018-12-05T07:51:39.658Z,53.50
2018-12-05T07:54:08.414Z,53.40
2018-12-05T07:56:36.663Z,53.40
2018-12-05T07:59:05.189Z,53.40
2018-12-05T08:01:34.495Z,53.40
2018-12-05T08:04:03.916Z,53.50
2018-12-05T08:06:33.228Z,53.40
2018-12-05T08:09:01.525Z,53.40
2018-12-05T08:11:29.816Z,53.40
2018-12-05T08:13:58.134Z,53.40
2018-12-05T08:16:26.443Z,53.50
2018-12-05T08:18:54.769Z,53.50
2018-12-05T08:21:23.074Z,53.40
2018-12-05T08:23:51.369Z,53.40
2018-12-05T08:26:19.893Z,53.40
2018-12-05T08:28:48.204Z,53.40
2018-12-05T08:31:16.692Z,53.40
2018-12-05T08:33:45.021Z,53.50
2018-12-05T08:36:13.400Z,53.50
2018-12-05T08:38:42.709Z,53.40
2018-12-05T08:41:12.045Z,53.50
2018-12-05T08:43:41.353Z,53.50
2018-12-05T08:46:10.225Z,53.40
2018-12-05T08:48:38.589Z,53.50
2018-12-05T08:51:06.903Z,53.50
2018-12-05T08:53:36.166Z,53.50
2018-12-05T08:56:05.620Z,53.50
2018-12-05T08:58:33.900Z,53.50
2018-12-05T09:01:02.311Z,53.60
2018-12-05T09:03:30.605Z,53.60
2018-12-05T09:05:59.005Z,53.50
2018-12-05T09:08:27.293Z,53.60
2018-12-05T09:10:55.987Z,53.60
2018-12-05T09:13:24.266Z,53.60
2018-12-05T09:15:52.564Z,53.50
2018-12-05T09:18:21.901Z,53.60
2018-12-05T09:20:50.299Z,53.60
2018-12-05T09:23:19.572Z,53.50
2018-12-05T09:25:47.941Z,53.60
2018-12-05T09:28:16.218Z,53.50
2018-12-05T09:30:45.614Z,53.50
2018-12-05T09:33:13.911Z,53.50
2018-12-05T09:35:43.159Z,53.70
2018-12-05T09:38:11.467Z,53.90
2018-12-05T09:40:39.881Z,53.80
2018-12-05T09:43:08.222Z,53.80
2018-12-05T09:45:36.601Z,53.60
2018-12-05T09:48:05.941Z,53.60
2018-12-05T09:50:34.633Z,53.60
2018-12-05T09:53:03.420Z,53.60
2018-12-05T09:55:31.753Z,53.90
2018-12-05T09:58:00.150Z,53.60
2018-12-05T10:00:30.830Z,53.60
2018-12-05T10:03:01.077Z,53.60
2018-12-05T10:05:29.395Z,53.50
2018-12-05T10:07:57.713Z,53.50
2018-12-05T10:10:26.009Z,53.40
2018-12-05T10:12:54.397Z,53.40
2018-12-05T10:15:22.686Z,53.40
2018-12-05T10:17:51.708Z,53.50
2018-12-05T10:20:20.037Z,53.50
2018-12-05T10:22:49.349Z,53.60
2018-12-05T10:25:18.662Z,53.50
2018-12-05T10:27:46.982Z,53.50
2018-12-05T10:30:15.798Z,53.50
2018-12-05T10:32:44.469Z,53.50
2018-12-05T10:35:12.952Z,53.50
2018-12-05T10:37:41.258Z,53.40
2018-12-05T10:40:10.912Z,53.40
2018-12-05T10:42:39.570Z,53.40
2018-12-05T10:45:08.053Z,53.40
2018-12-05T10:47:36.382Z,52.80
2018-12-05T10:50:06.700Z,53.60
2018-12-05T10:52:35.025Z,53.40
2018-12-05T10:55:03.654Z,53.40
2018-12-05T10:57:32.387Z,53.90
2018-12-05T11:00:00.668Z,53.50
2018-12-05T11:02:34.417Z,53.50
2018-12-05T11:05:07.988Z,53.50
2018-12-05T11:07:41.762Z,53.40
2018-12-05T11:10:15.448Z,53.50
2018-12-05T11:12:49.152Z,53.40
2018-12-05T11:15:22.777Z,53.40
2018-12-05T11:17:56.487Z,53.40
2018-12-05T11:20:30.422Z,53.30
2018-12-05T11:24:02.533Z,53.40
2018-12-05T11:26:34.385Z,53.40
2018-12-05T11:29:04.018Z,53.50
2018-12-05T11:31:32.493Z,53.40
2018-12-05T11:34:01.133Z,53.50
2018-12-05T11:36:29.580Z,53.50
2018-12-05T11:38:58.877Z,53.50
2018-12-05T11:41:27.597Z,53.50
2018-12-05T11:43:55.962Z,53.40
2018-12-05T11:46:24.258Z,53.70
2018-12-05T11:48:52.584Z,53.90
2018-12-05T11:51:21.122Z,53.60
2018-12-05T11:53:51.558Z,53.60
2018-12-05T11:56:21.681Z,53.60
2018-12-05T11:58:51.652Z,53.60
2018-12-05T12:01:20.604Z,53.60
2018-12-05T12:03:49.786Z,53.60
2018-12-05T12:06:19.036Z,53.60
2018-12-05T12:08:48.026Z,53.50
2018-12-05T12:11:17.212Z,53.50
2018-12-05T12:13:46.306Z,53.50
2018-12-05T12:16:15.372Z,53.50
2018-12-05T12:18:44.380Z,53.50
2018-12-05T12:21:12.689Z,53.50
2018-12-05T12:23:41.127Z,54.20
2018-12-05T12:26:09.612Z,53.50
2018-12-05T12:28:37.884Z,53.50
2018-12-05T12:31:06.250Z,53.50
2018-12-05T12:33:34.585Z,53.60
2018-12-05T12:36:03.027Z,53.50
2018-12-05T12:38:32.344Z,53.60
2018-12-05T12:41:00.656Z,54.10
2018-12-05T12:43:29.346Z,53.60
2018-12-05T12:45:57.644Z,53.60
2018-12-05T12:48:25.977Z,53.60
2018-12-05T12:50:54.789Z,53.50
2018-12-05T12:53:23.766Z,53.40
2018-12-05T12:55:52.096Z,53.50
2018-12-05T12:58:20.425Z,53.50
2018-12-05T13:00:49.144Z,53.60
2018-12-05T13:03:17.506Z,53.60
2018-12-05T13:05:45.808Z,53.60
2018-12-05T13:08:15.132Z,53.50
2018-12-05T13:10:44.115Z,53.80
2018-12-05T13:13:12.437Z,53.80
2018-12-05T13:15:41.781Z,53.60
2018-12-05T13:18:10.089Z,53.70
2018-12-05T13:20:38.440Z,53.70
2018-12-05T13:23:07.867Z,53.80
2018-12-05T13:25:36.221Z,54.00
2018-12-05T13:28:05.624Z,54.00
2018-12-05T13:30:34.020Z,53.90
2018-12-05T13:33:02.425Z,54.10
2018-12-05T13:35:30.748Z,54.40
2018-12-05T13:38:00.090Z,54.90
2018-12-05T13:40:28.552Z,54.80
2018-12-05T13:42:56.841Z,54.70
2018-12-05T13:45:25.155Z,54.50
2018-12-05T13:47:53.547Z,54.40
2018-12-05T13:50:21.864Z,54.30
2018-12-05T13:52:50.260Z,54.30
2018-12-05T13:55:18.565Z,54.30
2018-12-05T13:57:46.878Z,54.30
2018-12-05T14:00:15.327Z,54.70
2018-12-05T14:02:43.992Z,54.30
2018-12-05T14:05:12.290Z,54.30
2018-12-05T14:07:40.589Z,54.30
2018-12-05T14:10:09.003Z,54.90
2018-12-05T14:12:39.836Z,54.20
2018-12-05T14:15:10.357Z,54.20
2018-12-05T14:17:39.136Z,54.20
2018-12-05T14:20:08.816Z,54.20
2018-12-05T14:22:37.138Z,54.20
2018-12-05T14:25:06.929Z,54.30
2018-12-05T14:27:35.261Z,54.30
2018-12-05T14:30:04.694Z,54.30
2018-12-05T14:32:33.067Z,54.40
2018-12-05T14:35:01.425Z,54.30
2018-12-05T14:37:29.775Z,54.50
2018-12-05T14:39:58.098Z,54.60
2018-12-05T14:42:27.457Z,54.30
2018-12-05T14:44:56.769Z,54.40
2018-12-05T14:47:25.066Z,54.40
2018-12-05T14:49:54.409Z,54.40
2018-12-05T14:52:22.713Z,54.20
2018-12-05T14:54:50.999Z,54.40
2018-12-05T14:57:19.317Z,54.20
2018-12-05T14:59:47.644Z,54.30
2018-12-05T15:02:16.985Z,54.30
2018-12-05T15:04:46.323Z,54.30
2018-12-05T15:07:15.643Z,54.30
2018-12-05T15:09:44.001Z,54.20
2018-12-05T15:12:12.301Z,54.30
2018-12-05T15:14:40.651Z,54.20
2018-12-05T15:17:09.972Z,54.80
2018-12-05T15:19:38.297Z,54.30
2018-12-05T15:22:06.709Z,54.30
2018-12-05T15:24:35.655Z,54.20
2018-12-05T15:27:04.185Z,54.20
2018-12-05T15:29:32.592Z,54.30
2018-12-05T15:32:01.125Z,54.30
2018-12-05T15:34:29.651Z,54.40
2018-12-05T15:36:59.093Z,54.40
2018-12-05T15:39:28.402Z,54.90
2018-12-05T15:41:56.868Z,54.30
2018-12-05T15:44:25.293Z,54.30
2018-12-05T15:46:53.603Z,54.30
2018-12-05T15:49:21.909Z,53.70
2018-12-05T15:51:50.372Z,54.20
2018-12-05T15:54:18.660Z,54.20
2018-12-05T15:56:46.984Z,54.10
2018-12-05T15:59:15.285Z,54.20
2018-12-05T16:01:43.608Z,54.20
2018-12-05T16:04:11.916Z,54.20
2018-12-05T16:06:40.251Z,54.20
2018-12-05T16:09:08.748Z,54.40
2018-12-05T16:11:37.105Z,54.50
2018-12-05T16:14:05.604Z,54.50
2018-12-05T16:16:33.914Z,54.70
2018-12-05T16:19:02.288Z,54.70
2018-12-05T16:21:30.580Z,54.50
2018-12-05T16:23:59.969Z,54.40
2018-12-05T16:26:29.132Z,54.30
2018-12-05T16:28:57.456Z,54.30
2018-12-05T16:31:25.759Z,54.20
2018-12-05T16:33:54.083Z,54.20
2018-12-05T16:36:24.026Z,54.10
2018-12-05T16:38:52.320Z,54.20
2018-12-05T16:41:20.653Z,54.10
2018-12-05T16:43:48.960Z,54.10
2018-12-05T16:46:17.633Z,54.10
2018-12-05T16:48:45.944Z,54.00
2018-12-05T16:51:14.266Z,54.80
2018-12-05T16:53:43.167Z,54.40
2018-12-05T16:56:11.570Z,54.40
2018-12-05T16:58:40.902Z,54.80
2018-12-05T17:01:09.230Z,54.30
2018-12-05T17:03:37.519Z,54.30
2018-12-05T17:06:06.859Z,54.30
2018-12-05T17:08:35.263Z,54.20
2018-12-05T17:11:03.598Z,54.20
2018-12-05T17:13:32.150Z,54.30
2018-12-05T17:16:01.469Z,54.20
2018-12-05T17:18:30.811Z,54.10
2018-12-05T17:20:59.146Z,54.10
2018-12-05T17:23:27.526Z,53.80
2018-12-05T17:25:55.813Z,54.30
2018-12-05T17:28:25.165Z,54.20
2018-12-05T17:30:53.506Z,54.20
2018-12-05T17:33:21.738Z,54.20
2018-12-05T17:35:50.194Z,54.20
2018-12-05T17:38:18.460Z,54.10
2018-12-05T17:40:46.749Z,54.20
2018-12-05T17:43:15.078Z,54.80
2018-12-05T17:45:43.516Z,54.10
2018-12-05T17:48:11.813Z,54.20
2018-12-05T17:50:41.129Z,54.10
2018-12-05T17:53:09.423Z,54.20
2018-12-05T17:55:37.761Z,54.10
2018-12-05T17:58:06.064Z,54.10
2018-12-05T18:00:34.988Z,54.10
2018-12-05T18:03:03.295Z,54.00
2018-12-05T18:05:31.606Z,54.10
2018-12-05T18:07:59.931Z,54.10
2018-12-05T18:10:28.357Z,54.00
2018-12-05T18:12:57.671Z,54.10
2018-12-05T18:15:25.982Z,54.10
2018-12-05T18:17:54.306Z,54.20
2018-12-05T18:20:22.824Z,54.10
2018-12-05T18:22:51.125Z,54.10
2018-12-05T18:25:19.394Z,54.40
2018-12-05T18:27:47.693Z,54.20
2018-12-05T18:30:16.018Z,54.10
2018-12-05T18:32:44.758Z,54.20
2018-12-05T18:35:13.284Z,54.10
2018-12-05T18:37:41.580Z,54.20
2018-12-05T18:40:10.284Z,54.10
2018-12-05T18:42:38.677Z,54.00
2018-12-05T18:45:08.780Z,54.10
2018-12-05T18:47:37.090Z,54.10
2018-12-05T18:50:06.220Z,54.00
2018-12-05T18:52:34.526Z,54.10
2018-12-05T18:55:02.984Z,54.00
2018-12-05T18:57:32.304Z,54.10
2018-12-05T19:00:01.515Z,54.00
2018-12-05T19:02:30.201Z,54.00
2018-12-05T19:04:58.506Z,54.00
2018-12-05T19:07:27.804Z,54.00
2018-12-05T19:09:56.134Z,54.00
2018-12-05T19:12:24.437Z,54.00
2018-12-05T19:14:53.380Z,53.90
2018-12-05T19:17:21.784Z,53.90
2018-12-05T19:19:51.108Z,53.80
2018-12-05T19:22:19.401Z,54.00
2018-12-05T19:24:47.741Z,53.80
2018-12-05T19:27:16.045Z,54.00
2018-12-05T19:29:45.393Z,53.80
2018-12-05T19:32:14.768Z,53.80
2018-12-05T19:34:43.144Z,53.80
2018-12-05T19:37:11.483Z,53.80
2018-12-05T19:39:39.912Z,53.90
2018-12-05T19:42:08.276Z,53.80
2018-12-05T19:44:36.592Z,53.90
2018-12-05T19:47:04.974Z,53.80
2018-12-05T19:49:34.296Z,53.80
2018-12-05T19:52:03.020Z,53.80
2018-12-05T19:54:31.458Z,53.80
2018-12-05T19:56:59.761Z,53.80
2018-12-05T19:59:28.234Z,53.80
2018-12-05T20:01:56.513Z,53.70
2018-12-05T20:04:25.245Z,53.70
2018-12-05T20:06:54.204Z,53.80
2018-12-05T20:09:24.019Z,53.70
2018-12-05T20:11:52.306Z,53.70
2018-12-05T20:14:26.048Z,53.70
2018-12-05T20:16:54.380Z,53.60
2018-12-05T20:19:22.705Z,53.60
2018-12-05T20:21:50.997Z,53.60
2018-12-05T20:24:19.325Z,53.60
2018-12-05T20:26:47.641Z,53.60
2018-12-05T20:29:16.069Z,53.60
2018-12-05T20:31:45.388Z,53.60
2018-12-05T20:34:13.704Z,53.60
2018-12-05T20:36:43.300Z,53.60
2018-12-05T20:39:12.600Z,53.60
2018-12-05T20:41:41.120Z,53.70
2018-12-05T20:44:09.437Z,53.80
2018-12-05T20:46:37.806Z,54.10
2018-12-05T20:49:06.287Z,54.40
2018-12-05T20:51:35.617Z,54.40
2018-12-05T20:54:05.289Z,54.40
2018-12-05T20:56:35.635Z,54.30
2018-12-05T20:59:05.129Z,54.40
2018-12-05T21:01:35.710Z,54.40
2018-12-05T21:04:05.413Z,54.30
2018-12-05T21:06:33.928Z,54.20
2018-12-05T21:09:02.374Z,54.20
2018-12-05T21:11:30.700Z,54.20
2018-12-05T21:13:59.045Z,54.20
2018-12-05T21:16:27.320Z,54.20
2018-12-05T21:18:56.073Z,54.20
2018-12-05T21:21:24.869Z,54.80
2018-12-05T21:23:54.470Z,54.10
2018-12-05T21:26:23.391Z,54.20
2018-12-05T21:28:52.395Z,54.20
2018-12-05T21:31:22.010Z,54.20
2018-12-05T21:33:51.186Z,54.20
2018-12-05T21:36:21.032Z,54.20
2018-12-05T21:38:50.301Z,54.20
2018-12-05T21:41:19.564Z,54.20
2018-12-05T21:43:48.633Z,54.10
2018-12-05T21:46:18.830Z,54.10
2018-12-05T21:48:48.944Z,54.10
2018-12-05T21:51:17.850Z,54.60
2018-12-05T21:53:46.647Z,54.20
2018-12-05T21:56:15.638Z,54.10
2018-12-05T21:58:44.944Z,54.20
2018-12-05T22:01:14.085Z,54.10
2018-12-05T22:03:42.988Z,54.00
2018-12-05T22:06:11.309Z,54.00
2018-12-05T22:08:40.390Z,54.10
2018-12-05T22:11:09.340Z,54.10
2018-12-05T22:13:39.513Z,54.00
2018-12-05T22:16:08.531Z,54.00
2018-12-05T22:18:37.688Z,54.10
2018-12-05T22:21:06.777Z,54.10
2018-12-05T22:23:35.899Z,54.60
2018-12-05T22:26:04.965Z,53.90
2018-12-05T22:28:34.059Z,54.00
2018-12-05T22:31:04.232Z,53.90
2018-12-05T22:33:34.069Z,53.90
2018-12-05T22:36:03.333Z,53.90
2018-12-05T22:38:32.399Z,53.90
2018-12-05T22:41:01.452Z,53.90
2018-12-05T22:43:30.395Z,53.70
2018-12-05T22:45:59.460Z,53.80
2018-12-05T22:48:28.407Z,53.80
2018-12-05T22:50:57.626Z,53.70
2018-12-05T22:53:26.543Z,53.70
2018-12-05T22:55:55.804Z,53.80
2018-12-05T22:58:24.835Z,53.90
2018-12-05T23:00:57.138Z,53.70
2018-12-05T23:03:25.905Z,53.70
2018-12-05T23:05:54.205Z,53.60
2018-12-05T23:08:22.525Z,53.80
2018-12-05T23:10:51.671Z,53.70
2018-12-05T23:13:20.600Z,53.70
2018-12-05T23:15:50.117Z,53.70
2018-12-05T23:18:20.240Z,53.70
2018-12-05T23:20:49.283Z,53.60
2018-12-05T23:23:18.338Z,53.60
2018-12-05T23:25:47.476Z,53.60
2018-12-05T23:28:16.509Z,53.50
2018-12-05T23:30:45.617Z,53.60
2018-12-05T23:33:14.683Z,53.60
2018-12-05T23:35:43.765Z,53.60
2018-12-05T23:38:12.762Z,53.70
2018-12-05T23:40:41.935Z,53.70
2018-12-05T23:43:11.810Z,53.70
2018-12-05T23:45:41.942Z,53.70
2018-12-05T23:48:10.915Z,53.80
2018-12-05T23:50:39.844Z,53.70
2018-12-05T23:53:09.874Z,53.70
2018-12-05T23:55:38.531Z,53.60
2018-12-05T23:58:06.853Z,53.70
